Terminal Aerodrome Forecast
Issued by NWS Mt. Holly, NJ

Home | Current Version | Previous Version | Text Only | Print | Product List | Glossary On
Versions: 1 2 3 4 5 6 7 8 9 10 11 12 13 14 15 16 17 18 19 20 21 22 23 24 25 26
740
FTUS41 KPHI 190520
TAFPHL
TAF
KPHL 190520Z 1906/2012 21013G25KT 6SM -SHRA SCT050 OVC120
      WS020/21045KT
      TEMPO 1906/1910 4SM SHRA OVC050
     FM191100 25016G29KT P6SM VCSH OVC035
     FM191200 27015G27KT P6SM BKN035
     FM191400 29015G37KT P6SM SCT035
     FM192100 29012G25KT P6SM SKC
     FM200400 28012KT P6SM SKC=

USA.gov is the U.S. government's official web portal to all federal, state and local government web resources and services.